createdAt,value
2018-04-18T00:01:43.382Z,8.73
2018-04-18T00:04:11.686Z,9.47
2018-04-18T00:06:39.191Z,8.23
2018-04-18T00:09:06.715Z,9.97
2018-04-18T00:11:34.243Z,9.40
2018-04-18T00:14:01.755Z,11.83
2018-04-18T00:16:29.282Z,9.67
2018-04-18T00:18:56.839Z,11.93
2018-04-18T00:21:24.356Z,11.50
2018-04-18T00:23:51.891Z,13.20
2018-04-18T00:26:19.418Z,9.20
2018-04-18T00:28:46.984Z,8.00
2018-04-18T00:31:14.534Z,10.03
2018-04-18T00:33:42.071Z,8.77
2018-04-18T00:36:10.739Z,8.10
2018-04-18T00:38:39.681Z,8.23
2018-04-18T00:41:08.358Z,11.18
2018-04-18T00:43:37.167Z,7.93
2018-04-18T00:46:05.977Z,9.20
2018-04-18T00:48:34.225Z,8.73
2018-04-18T00:51:02.145Z,7.03
2018-04-18T00:53:30.453Z,5.53
2018-04-18T00:55:57.955Z,6.80
2018-04-18T00:58:25.511Z,8.47
2018-04-18T01:00:53.064Z,8.17
2018-04-18T01:03:20.574Z,9.70
2018-04-18T01:05:49.511Z,7.25
2018-04-18T01:08:17.075Z,6.37
2018-04-18T01:10:45.519Z,10.13
2018-04-18T01:13:13.302Z,9.93
2018-04-18T01:15:40.860Z,12.60
2018-04-18T01:18:08.366Z,9.80
2018-04-18T01:20:36.680Z,9.90
2018-04-18T01:23:04.289Z,11.25
2018-04-18T01:25:31.913Z,10.33
2018-04-18T01:27:59.478Z,11.53
2018-04-18T01:30:27.008Z,10.70
2018-04-18T01:32:54.585Z,10.35
2018-04-18T01:35:22.247Z,8.83
2018-04-18T01:37:49.789Z,8.27
2018-04-18T01:40:17.353Z,8.82
2018-04-18T01:42:44.856Z,9.93
2018-04-18T01:45:12.478Z,10.23
2018-04-18T01:47:40.022Z,7.93
2018-04-18T01:50:07.526Z,9.00
2018-04-18T01:52:35.384Z,8.60
2018-04-18T01:55:02.931Z,8.90
2018-04-18T01:57:30.460Z,8.63
2018-04-18T01:59:58.727Z,11.73
2018-04-18T02:02:27.014Z,9.97
2018-04-18T02:04:55.341Z,8.73
2018-04-18T02:07:22.855Z,8.10
2018-04-18T02:09:51.163Z,8.67
2018-04-18T02:12:18.679Z,9.65
2018-04-18T02:14:46.971Z,10.93
2018-04-18T02:17:14.763Z,12.93
2018-04-18T02:19:43.169Z,8.97
2018-04-18T02:22:10.694Z,10.83
2018-04-18T02:24:38.365Z,10.00
2018-04-18T02:27:05.905Z,9.03
2018-04-18T02:29:33.436Z,12.93
2018-04-18T02:32:00.978Z,11.03
2018-04-18T02:34:29.311Z,12.83
2018-04-18T02:36:56.845Z,11.48
2018-04-18T02:39:24.484Z,13.10
2018-04-18T02:41:52.814Z,12.43
2018-04-18T02:44:20.494Z,11.17
2018-04-18T02:46:48.159Z,11.47
2018-04-18T02:49:15.795Z,12.65
2018-04-18T02:51:43.310Z,9.93
2018-04-18T02:54:11.606Z,12.30
2018-04-18T02:56:39.144Z,15.60
2018-04-18T02:59:07.458Z,9.77
2018-04-18T03:01:34.967Z,9.63
2018-04-18T03:04:03.289Z,11.70
2018-04-18T03:06:30.863Z,12.50
2018-04-18T03:08:59.918Z,14.15
2018-04-18T03:11:28.306Z,11.88
2018-04-18T03:13:55.840Z,11.47
2018-04-18T03:16:24.397Z,12.40
2018-04-18T03:18:52.349Z,11.30
2018-04-18T03:21:19.856Z,8.07
2018-04-18T03:23:48.402Z,9.13
2018-04-18T03:26:15.991Z,8.03
2018-04-18T03:28:44.651Z,10.07
2018-04-18T03:31:12.493Z,10.83
2018-04-18T03:33:40.096Z,8.23
2018-04-18T03:36:08.449Z,10.07
2018-04-18T03:38:36.937Z,10.07
2018-04-18T03:41:05.516Z,11.07
2018-04-18T03:43:33.071Z,13.33
2018-04-18T03:46:00.637Z,13.57
2018-04-18T03:48:28.198Z,6.80
2018-04-18T03:50:55.792Z,11.83
2018-04-18T03:53:24.129Z,10.83
2018-04-18T03:55:51.698Z,8.70
2018-04-18T03:58:19.268Z,9.80
2018-04-18T04:00:46.833Z,10.07
2018-04-18T04:03:16.110Z,11.10
2018-04-18T04:05:44.074Z,7.85
2018-04-18T04:08:11.635Z,8.33
2018-04-18T04:10:39.212Z,11.25
2018-04-18T04:13:07.554Z,10.63
2018-04-18T04:15:35.143Z,7.20
2018-04-18T04:18:14.675Z,8.95
2018-04-18T04:20:54.309Z,15.63
2018-04-18T04:23:33.913Z,12.07
2018-04-18T04:26:02.262Z,10.63
2018-04-18T04:28:30.593Z,11.23
2018-04-18T04:30:58.153Z,18.63
2018-04-18T04:33:25.852Z,11.13
2018-04-18T04:35:53.417Z,19.92
2018-04-18T04:38:21.019Z,25.00
2018-04-18T04:40:48.625Z,12.60
2018-04-18T04:43:17.494Z,16.25
2018-04-18T04:45:45.076Z,12.88
2018-04-18T04:48:12.673Z,14.33
2018-04-18T04:50:40.264Z,16.07
2018-04-18T04:53:07.821Z,12.43
2018-04-18T04:55:35.379Z,13.38
2018-04-18T04:58:02.970Z,18.83
2018-04-18T05:00:32.054Z,18.10
2018-04-18T05:02:59.647Z,16.52
2018-04-18T05:05:27.233Z,16.33
2018-04-18T05:07:54.832Z,14.67
2018-04-18T05:10:22.723Z,18.23
2018-04-18T05:12:50.555Z,18.00
2018-04-18T05:15:19.576Z,16.73
2018-04-18T05:17:47.850Z,18.90
2018-04-18T05:20:15.495Z,14.07
2018-04-18T05:22:43.148Z,17.02
2018-04-18T05:25:11.143Z,20.57
2018-04-18T05:27:38.800Z,19.83
2018-04-18T05:30:06.412Z,20.87
2018-04-18T05:32:35.523Z,19.33
2018-04-18T05:35:03.143Z,18.00
2018-04-18T05:37:30.754Z,17.10
2018-04-18T05:39:58.343Z,19.30
2018-04-18T05:42:25.969Z,14.68
2018-04-18T05:44:53.641Z,17.27
2018-04-18T05:47:21.221Z,14.05
2018-04-18T05:49:48.816Z,16.63
2018-04-18T05:52:17.468Z,21.95
2018-04-18T05:54:45.068Z,20.05
2018-04-18T05:57:13.491Z,22.00
2018-04-18T05:59:41.119Z,14.27
2018-04-18T06:02:08.897Z,22.93
2018-04-18T06:04:36.576Z,17.80
2018-04-18T06:07:04.140Z,20.73
2018-04-18T06:09:31.700Z,18.77
2018-04-18T06:11:59.332Z,20.23
2018-04-18T06:14:26.895Z,17.97
2018-04-18T06:16:54.704Z,17.17
2018-04-18T06:19:22.321Z,16.63
2018-04-18T06:21:50.005Z,12.73
2018-04-18T06:24:17.603Z,14.43
2018-04-18T06:26:46.648Z,20.80
2018-04-18T06:29:14.216Z,17.07
2018-04-18T06:31:41.782Z,18.80
2018-04-18T06:34:09.365Z,16.55
2018-04-18T06:36:37.425Z,18.13
2018-04-18T06:39:05.681Z,17.23
2018-04-18T06:41:33.279Z,21.80
2018-04-18T06:44:01.138Z,17.93
2018-04-18T06:46:29.457Z,21.42
2018-04-18T06:48:57.884Z,18.77
2018-04-18T06:51:25.769Z,15.80
2018-04-18T06:53:54.147Z,15.37
2018-04-18T06:56:21.739Z,18.33
2018-04-18T06:58:50.566Z,20.00
2018-04-18T07:01:18.196Z,16.70
2018-04-18T07:03:45.965Z,27.00
2018-04-18T07:06:14.166Z,17.83
2018-04-18T07:08:41.917Z,16.30
2018-04-18T07:11:09.647Z,18.53
2018-04-18T07:13:37.332Z,26.47
2018-04-18T07:16:05.669Z,28.63
2018-04-18T07:18:33.652Z,26.97
2018-04-18T07:21:02.241Z,38.57
2018-04-18T07:23:30.586Z,26.43
2018-04-18T07:25:58.190Z,28.85
2018-04-18T07:28:26.523Z,19.90
2018-04-18T07:30:54.127Z,36.50
2018-04-18T07:33:22.596Z,20.47
2018-04-18T07:35:50.957Z,23.00
2018-04-18T07:38:18.560Z,21.77
2018-04-18T07:40:46.589Z,20.97
2018-04-18T07:43:14.171Z,24.70
2018-04-18T07:45:42.547Z,17.43
2018-04-18T07:48:11.012Z,24.17
2018-04-18T07:50:40.121Z,22.00
2018-04-18T07:53:08.598Z,27.80
2018-04-18T07:55:37.248Z,19.67
2018-04-18T07:58:04.856Z,24.83
2018-04-18T08:00:33.246Z,26.37
2018-04-18T08:03:00.878Z,22.77
2018-04-18T08:05:29.290Z,31.37
2018-04-18T08:07:56.905Z,21.87
2018-04-18T08:10:24.488Z,27.63
2018-04-18T08:12:53.428Z,23.30
2018-04-18T08:15:21.085Z,23.53
2018-04-18T08:17:49.390Z,20.20
2018-04-18T08:20:17.033Z,24.07
2018-04-18T08:22:44.584Z,20.07
2018-04-18T08:25:12.165Z,21.83
2018-04-18T08:30:32.813Z,24.73
2018-04-18T08:33:01.174Z,23.93
2018-04-18T08:35:29.125Z,21.07
2018-04-18T08:37:56.721Z,20.23
2018-04-18T08:40:25.081Z,24.63
2018-04-18T08:42:52.652Z,19.50
2018-04-18T08:45:21.237Z,20.27
2018-04-18T08:47:49.578Z,22.30
2018-04-18T08:50:17.139Z,21.03
2018-04-18T08:52:44.720Z,23.03
2018-04-18T08:55:12.393Z,22.23
2018-04-18T08:57:40.005Z,20.83
2018-04-18T09:00:08.624Z,19.23
2018-04-18T09:02:36.241Z,20.60
2018-04-18T09:05:03.857Z,21.63
2018-04-18T09:07:32.330Z,21.10
2018-04-18T09:09:59.937Z,20.70
2018-04-18T09:12:27.487Z,18.83
2018-04-18T09:14:55.093Z,20.27
2018-04-18T09:17:23.813Z,17.23
2018-04-18T09:19:52.471Z,18.37
2018-04-18T09:22:20.058Z,21.47
2018-04-18T09:24:47.606Z,16.60
2018-04-18T09:27:16.500Z,17.60
2018-04-18T09:29:44.346Z,16.83
2018-04-18T09:32:11.922Z,22.20
2018-04-18T09:34:39.901Z,22.60
2018-04-18T09:37:07.531Z,18.47
2018-04-18T09:39:35.118Z,21.90
2018-04-18T09:42:03.477Z,14.80
2018-04-18T09:44:31.039Z,17.73
2018-04-18T09:46:58.615Z,16.20
2018-04-18T09:49:26.182Z,16.70
2018-04-18T09:51:53.782Z,15.33
2018-04-18T09:54:21.465Z,16.40
2018-04-18T09:56:50.161Z,15.50
2018-04-18T09:59:17.783Z,16.00
2018-04-18T10:01:45.379Z,13.53
2018-04-18T10:04:14.983Z,13.10
2018-04-18T10:06:43.267Z,13.83
2018-04-18T10:09:10.861Z,11.33
2018-04-18T10:11:39.225Z,11.67
2018-04-18T10:14:08.713Z,17.17
2018-04-18T10:16:36.269Z,22.27
2018-04-18T10:19:04.425Z,11.77
2018-04-18T10:21:32.017Z,16.87
2018-04-18T10:23:59.874Z,12.60
2018-04-18T10:26:28.285Z,14.13
2018-04-18T10:28:56.687Z,10.93
2018-04-18T10:31:24.323Z,13.47
2018-04-18T10:33:52.152Z,8.90
2018-04-18T10:36:19.771Z,12.67
2018-04-18T10:38:47.577Z,12.07
2018-04-18T10:41:15.223Z,13.77
2018-04-18T10:43:42.838Z,12.85
2018-04-18T10:46:11.194Z,9.13
2018-04-18T10:48:39.253Z,20.20
2018-04-18T10:51:06.820Z,10.00
2018-04-18T10:53:34.388Z,12.00
2018-04-18T10:56:02.788Z,9.07
2018-04-18T10:58:31.121Z,8.53
2018-04-18T11:00:58.720Z,10.10
2018-04-18T11:03:26.272Z,9.17
2018-04-18T11:05:53.875Z,9.23
2018-04-18T11:08:21.444Z,9.63
2018-04-18T11:10:49.020Z,10.20
2018-04-18T11:13:16.603Z,7.07
2018-04-18T11:15:44.211Z,7.00
2018-04-18T11:18:11.829Z,7.93
2018-04-18T11:20:39.621Z,8.03
2018-04-18T11:23:07.942Z,6.80
2018-04-18T11:25:35.520Z,7.10
2018-04-18T11:28:03.229Z,7.00
2018-04-18T11:30:30.819Z,7.72
2018-04-18T11:32:58.404Z,8.20
2018-04-18T11:35:25.989Z,8.77
2018-04-18T11:37:54.344Z,9.20
2018-04-18T11:40:21.970Z,10.07
2018-04-18T11:42:49.539Z,8.73
2018-04-18T11:45:17.177Z,8.93
2018-04-18T11:47:44.866Z,9.70
2018-04-18T11:50:12.524Z,6.23
2018-04-18T11:52:40.074Z,7.90
2018-04-18T11:55:07.693Z,5.70
2018-04-18T11:57:36.116Z,7.13
2018-04-18T12:00:03.653Z,7.80
2018-04-18T12:02:31.363Z,8.38
2018-04-18T12:04:59.119Z,10.80
2018-04-18T12:07:26.853Z,11.53
2018-04-18T12:09:54.487Z,7.00
2018-04-18T12:12:23.633Z,6.97
2018-04-18T12:14:51.246Z,5.53
2018-04-18T12:17:19.573Z,8.13
2018-04-18T12:19:47.759Z,7.43
2018-04-18T12:22:15.406Z,6.13
2018-04-18T12:24:43.917Z,6.30
2018-04-18T12:27:11.661Z,6.67
2018-04-18T12:29:39.310Z,5.28
2018-04-18T12:32:06.885Z,7.60
2018-04-18T12:34:34.752Z,6.37
2018-04-18T12:37:02.313Z,5.97
2018-04-18T12:39:29.911Z,7.17
2018-04-18T12:41:58.251Z,4.90
2018-04-18T12:44:25.916Z,9.20
2018-04-18T12:46:54.288Z,6.20
2018-04-18T12:49:21.878Z,6.37
2018-04-18T12:51:49.608Z,4.57
2018-04-18T12:54:17.536Z,5.37
2018-04-18T12:56:45.943Z,7.30
2018-04-18T12:59:13.561Z,4.23
2018-04-18T13:01:42.231Z,6.33
2018-04-18T13:04:09.852Z,5.30
2018-04-18T13:06:37.421Z,6.47
2018-04-18T13:09:05.541Z,6.77
2018-04-18T13:11:33.882Z,4.83
2018-04-18T13:14:01.566Z,4.72
2018-04-18T13:16:29.411Z,8.60
2018-04-18T13:18:57.160Z,6.83
2018-04-18T13:21:25.634Z,6.85
2018-04-18T13:23:53.421Z,7.03
2018-04-18T13:26:21.081Z,5.53
2018-04-18T13:28:48.690Z,26.20
2018-04-18T13:31:16.241Z,7.30
2018-04-18T13:33:44.574Z,7.13
2018-04-18T13:36:12.252Z,5.90
2018-04-18T13:38:40.805Z,6.62
2018-04-18T13:41:08.904Z,7.50
2018-04-18T13:43:37.972Z,5.13
2018-04-18T13:46:05.737Z,7.10
2018-04-18T13:48:33.307Z,4.57
2018-04-18T13:51:00.905Z,3.63
2018-04-18T13:53:29.268Z,5.40
2018-04-18T13:55:57.638Z,3.77
2018-04-18T13:58:25.192Z,6.00
2018-04-18T14:00:52.785Z,7.93
2018-04-18T14:03:21.115Z,8.13
2018-04-18T14:05:48.705Z,5.20
2018-04-18T14:08:16.456Z,4.70
2018-04-18T14:10:44.014Z,7.17
2018-04-18T14:13:11.581Z,9.83
2018-04-18T14:15:39.143Z,6.17
2018-04-18T14:18:06.720Z,5.87
2018-04-18T14:20:35.290Z,5.83
2018-04-18T14:23:02.861Z,6.97
2018-04-18T14:25:31.300Z,5.12
2018-04-18T14:27:59.859Z,7.37
2018-04-18T14:30:28.153Z,9.17
2018-04-18T14:32:55.746Z,7.30
2018-04-18T14:35:24.813Z,5.03
2018-04-18T14:37:52.403Z,5.93
2018-04-18T14:40:20.776Z,7.97
2018-04-18T14:42:48.381Z,8.70
2018-04-18T14:45:16.011Z,3.60
2018-04-18T14:47:43.776Z,4.10
2018-04-18T14:50:12.163Z,4.00
2018-04-18T14:52:40.565Z,7.33
2018-04-18T14:55:08.161Z,9.37
2018-04-18T14:57:36.041Z,6.40
2018-04-18T15:00:03.668Z,8.37
2018-04-18T15:02:31.314Z,4.93
2018-04-18T15:04:58.900Z,8.43
2018-04-18T15:07:26.465Z,6.00
2018-04-18T15:09:54.015Z,5.17
2018-04-18T15:12:21.613Z,5.20
2018-04-18T15:14:49.961Z,6.30
2018-04-18T15:17:17.524Z,5.13
2018-04-18T15:19:45.287Z,5.87
2018-04-18T15:22:12.841Z,5.00
2018-04-18T15:24:40.798Z,7.17
2018-04-18T15:27:08.356Z,8.07
2018-04-18T15:29:35.918Z,5.70
2018-04-18T15:32:03.508Z,4.43
2018-04-18T15:34:31.948Z,6.30
2018-04-18T15:36:59.583Z,9.25
2018-04-18T15:39:27.943Z,6.83
2018-04-18T15:41:55.555Z,6.10
2018-04-18T15:44:23.143Z,4.50
2018-04-18T15:46:50.709Z,4.03
2018-04-18T15:49:18.456Z,7.17
2018-04-18T15:51:46.022Z,2.80
2018-04-18T15:54:13.614Z,4.23
2018-04-18T15:56:42.073Z,8.10
2018-04-18T15:59:09.791Z,5.43
2018-04-18T16:01:37.352Z,6.87
2018-04-18T16:04:04.921Z,9.97
2018-04-18T16:06:32.480Z,8.47
2018-04-18T16:09:00.118Z,4.17
2018-04-18T16:11:28.510Z,9.10
2018-04-18T16:13:56.118Z,14.53
2018-04-18T16:16:24.686Z,5.60
2018-04-18T16:18:52.278Z,7.60
2018-04-18T16:21:20.091Z,10.77
2018-04-18T16:23:47.674Z,7.10
2018-04-18T16:26:15.221Z,9.43
2018-04-18T16:28:42.787Z,4.10
2018-04-18T16:31:10.415Z,7.27
2018-04-18T16:33:38.062Z,19.03
2018-04-18T16:36:06.404Z,5.73
2018-04-18T16:38:33.977Z,6.17
2018-04-18T16:41:01.584Z,8.87
2018-04-18T16:43:29.174Z,5.47
2018-04-18T16:45:56.839Z,5.30
2018-04-18T16:48:24.396Z,6.17
2018-04-18T16:50:51.981Z,9.43
2018-04-18T16:53:19.832Z,5.23
2018-04-18T16:55:47.393Z,10.23
2018-04-18T16:58:14.979Z,6.40
2018-04-18T17:00:42.566Z,6.60
2018-04-18T17:03:10.147Z,9.03
2018-04-18T17:05:37.712Z,7.17
2018-04-18T17:08:05.422Z,7.97
2018-04-18T17:10:33.464Z,9.40
2018-04-18T17:13:01.177Z,6.47
2018-04-18T17:15:29.921Z,27.30
2018-04-18T17:17:57.518Z,7.70
2018-04-18T17:20:25.265Z,5.25
2018-04-18T17:22:52.877Z,3.57
2018-04-18T17:25:20.445Z,4.13
2018-04-18T17:27:48.036Z,5.37
2018-04-18T17:30:15.639Z,4.53
2018-04-18T17:32:43.203Z,7.83
2018-04-18T17:35:11.573Z,5.77
2018-04-18T17:37:39.208Z,6.97
2018-04-18T17:40:07.961Z,4.67
2018-04-18T17:42:36.932Z,7.60
2018-04-18T17:45:04.666Z,5.30
2018-04-18T17:47:32.262Z,7.47
2018-04-18T17:49:59.888Z,5.97
2018-04-18T17:52:28.618Z,4.93
2018-04-18T17:54:56.290Z,6.93
2018-04-18T17:57:23.846Z,7.18
2018-04-18T17:59:51.443Z,5.80
2018-04-18T18:02:19.760Z,9.20
2018-04-18T18:04:47.555Z,7.63
2018-04-18T18:07:15.147Z,7.23
2018-04-18T18:09:43.754Z,5.53
2018-04-18T18:12:11.427Z,6.15
2018-04-18T18:14:38.993Z,7.13
2018-04-18T18:17:07.549Z,7.43
2018-04-18T18:19:36.542Z,9.97
2018-04-18T18:22:04.151Z,6.90
2018-04-18T18:24:31.835Z,7.90
2018-04-18T18:26:59.406Z,11.93
2018-04-18T18:29:28.068Z,7.33
2018-04-18T18:31:55.695Z,7.05
2018-04-18T18:34:23.258Z,6.93
2018-04-18T18:36:51.139Z,4.77
2018-04-18T18:39:18.829Z,7.43
2018-04-18T18:41:47.183Z,9.30
2018-04-18T18:44:14.891Z,8.07
2018-04-18T18:46:43.361Z,8.30
2018-04-18T18:49:11.727Z,4.97
2018-04-18T18:51:39.455Z,5.53
2018-04-18T18:54:07.051Z,5.30
2018-04-18T18:56:35.005Z,6.00
2018-04-18T18:59:02.752Z,6.17
2018-04-18T19:01:30.353Z,3.70
2018-04-18T19:03:59.941Z,4.40
2018-04-18T19:06:27.666Z,5.17
2018-04-18T19:08:55.269Z,4.23
2018-04-18T19:11:22.838Z,5.50
2018-04-18T19:13:50.422Z,7.07
2018-04-18T19:16:18.959Z,7.55
2018-04-18T19:18:46.940Z,4.90
2018-04-18T19:21:14.490Z,8.43
2018-04-18T19:23:42.097Z,9.53
2018-04-18T19:26:10.720Z,10.57
2018-04-18T19:28:38.434Z,7.77
2018-04-18T19:31:06.020Z,7.27
2018-04-18T19:33:33.849Z,11.93
2018-04-18T19:36:02.213Z,9.10
2018-04-18T19:38:31.516Z,8.60
2018-04-18T19:40:59.104Z,5.40
2018-04-18T19:43:27.468Z,11.03
2018-04-18T19:45:55.209Z,7.00
2018-04-18T19:48:22.772Z,12.93
2018-04-18T19:50:50.373Z,10.73
2018-04-18T19:53:18.073Z,12.18
2018-04-18T19:55:46.883Z,9.70
2018-04-18T19:58:14.473Z,8.83
2018-04-18T20:00:42.844Z,9.37
2018-04-18T20:03:10.569Z,8.40
2018-04-18T20:05:38.158Z,14.85
2018-04-18T20:08:05.959Z,12.47
2018-04-18T20:10:33.554Z,10.17
2018-04-18T20:13:01.125Z,10.20
2018-04-18T20:15:28.716Z,14.83
2018-04-18T20:17:57.048Z,16.27
2018-04-18T20:20:24.644Z,17.45
2018-04-18T20:22:52.491Z,15.50
2018-04-18T20:25:20.195Z,12.77
2018-04-18T20:27:48.737Z,10.93
2018-04-18T20:30:16.480Z,9.18
2018-04-18T20:32:44.072Z,9.97
2018-04-18T20:35:12.297Z,14.67
2018-04-18T20:37:40.069Z,10.67
2018-04-18T20:40:07.650Z,12.13
2018-04-18T20:42:35.405Z,11.77
2018-04-18T20:45:03.001Z,15.57
2018-04-18T20:47:30.736Z,12.03
2018-04-18T20:49:58.350Z,13.20
2018-04-18T20:52:26.701Z,18.77
2018-04-18T20:54:55.046Z,13.40
2018-04-18T20:57:22.625Z,11.20
2018-04-18T20:59:50.196Z,15.50
2018-04-18T21:02:17.758Z,15.17
2018-04-18T21:04:45.358Z,11.35
2018-04-18T21:07:12.945Z,16.33
2018-04-18T21:09:40.837Z,26.20
2018-04-18T21:12:08.438Z,12.23
2018-04-18T21:14:36.843Z,13.87
2018-04-18T21:17:04.507Z,12.53
2018-04-18T21:19:33.410Z,13.20
2018-04-18T21:22:00.965Z,13.10
2018-04-18T21:24:28.604Z,25.80
2018-04-18T21:26:56.189Z,54.80
2018-04-18T21:29:23.757Z,19.50
2018-04-18T21:31:51.474Z,35.20
2018-04-18T21:34:20.618Z,16.13
2018-04-18T21:36:48.271Z,25.00
2018-04-18T21:39:15.952Z,30.53
2018-04-18T21:41:43.554Z,27.03
2018-04-18T21:44:12.380Z,33.37
2018-04-18T21:46:40.030Z,20.73
2018-04-18T21:49:07.739Z,35.58
2018-04-18T21:51:35.320Z,35.50
2018-04-18T21:54:03.295Z,83.60
2018-04-18T21:56:31.119Z,121.93
2018-04-18T21:58:58.756Z,97.67
2018-04-18T22:07:25.067Z,35.23
2018-04-18T22:10:10.212Z,72.18
2018-04-18T22:12:50.557Z,45.40
2018-04-18T22:15:18.138Z,47.90
2018-04-18T22:17:45.927Z,83.73
2018-04-18T22:20:13.503Z,169.23
2018-04-18T22:22:41.877Z,147.62
2018-04-18T22:25:10.344Z,84.57
2018-04-18T22:27:37.967Z,110.17
2018-04-18T22:30:20.444Z,85.97
2018-04-18T22:32:48.146Z,58.57
2018-04-18T22:35:15.859Z,48.57
2018-04-18T22:37:44.260Z,49.33
2018-04-18T22:40:13.571Z,83.47
2018-04-18T22:42:41.257Z,127.45
2018-04-18T22:45:09.041Z,144.02
2018-04-18T22:47:36.808Z,115.70
2018-04-18T22:50:04.421Z,102.87
2018-04-18T22:52:32.376Z,80.80
2018-04-18T22:54:59.976Z,38.03
2018-04-18T22:57:27.558Z,32.03
2018-04-18T22:59:55.710Z,28.33
2018-04-18T23:02:23.328Z,23.10
2018-04-18T23:04:51.753Z,22.67
2018-04-18T23:07:19.421Z,21.53
2018-04-18T23:09:47.004Z,48.63
2018-04-18T23:12:14.590Z,85.17
2018-04-18T23:14:42.944Z,114.07
2018-04-18T23:17:10.750Z,90.30
2018-04-18T23:19:40.190Z,31.70
2018-04-18T23:22:08.626Z,24.23
2018-04-18T23:24:36.211Z,39.97
2018-04-18T23:27:04.004Z,60.80
2018-04-18T23:29:31.751Z,46.83
2018-04-18T23:31:59.747Z,20.17
2018-04-18T23:34:28.319Z,26.90
2018-04-18T23:36:56.471Z,20.23
2018-04-18T23:39:24.616Z,17.17
2018-04-18T23:41:52.280Z,15.70
2018-04-18T23:44:19.970Z,17.10
2018-04-18T23:46:47.778Z,27.60
2018-04-18T23:49:15.752Z,38.60
2018-04-18T23:51:43.459Z,20.73
2018-04-18T23:54:11.174Z,17.80
2018-04-18T23:56:38.785Z,18.30
2018-04-18T23:59:06.402Z,32.20
